Detroit, Michigan
Traffic Map
Current Weather Conditions
Detroit, Michigan
Few Clouds
Few Clouds
46°
Feels Like: 44°
Wind Chill: 44° Ceiling: Unl
Heat Index: 46° Visibility: 10mi
Dew Point: 45° Wind: 6mph
Humidity: 93% Direction: 220° (SW)
Pressure: 29.92in Gusts: 0mph
Raw Report DataCYQG 250700Z 22005KT 10SM FEW100 08/07 A2992 RMK AC1 SLP133
Traffic Incident Summary
Active as of:
Severity:
Category:
InformationThere was an issue retrieving the traffic information for this location. Please try a different location or try again shortly.
Advertisements
Track Severe Weather on mobile